sensor_id;sensor_type;location;lat;lon;timestamp;pressure;altitude;pressure_sealevel;temperature;humidity
79645;BME280;69117;47.148;18.954;2024-03-08T00:02:01;100783.16;;;4.84;100.00
79645;BME280;69117;47.148;18.954;2024-03-08T00:05:05;100790.53;;;4.92;100.00
79645;BME280;69117;47.148;18.954;2024-03-08T00:08:06;100781.53;;;4.96;100.00
79645;BME280;69117;47.148;18.954;2024-03-08T00:11:11;100782.59;;;4.93;100.00
79645;BME280;69117;47.148;18.954;2024-03-08T00:14:13;100779.97;;;4.93;100.00
79645;BME280;69117;47.148;18.954;2024-03-08T00:17:15;100782.81;;;4.90;100.00
79645;BME280;69117;47.148;18.954;2024-03-08T00:20:17;100795.13;;;4.88;100.00
79645;BME280;69117;47.148;18.954;2024-03-08T00:23:21;100782.03;;;4.88;100.00
79645;BME280;69117;47.148;18.954;2024-03-08T00:26:23;100781.94;;;4.90;100.00
79645;BME280;69117;47.148;18.954;2024-03-08T00:29:25;100784.47;;;4.91;100.00
79645;BME280;69117;47.148;18.954;2024-03-08T00:32:27;100779.97;;;4.93;100.00
79645;BME280;69117;47.148;18.954;2024-03-08T00:35:29;100776.31;;;4.96;100.00
79645;BME280;69117;47.148;18.954;2024-03-08T00:38:31;100774.69;;;5.08;100.00
79645;BME280;69117;47.148;18.954;2024-03-08T00:41:33;100760.19;;;5.02;100.00
79645;BME280;69117;47.148;18.954;2024-03-08T00:44:35;100772.03;;;4.95;100.00
79645;BME280;69117;47.148;18.954;2024-03-08T00:47:37;100773.50;;;4.99;100.00
79645;BME280;69117;47.148;18.954;2024-03-08T00:50:39;100765.56;;;5.00;100.00
79645;BME280;69117;47.148;18.954;2024-03-08T00:53:41;100756.66;;;5.03;100.00
79645;BME280;69117;47.148;18.954;2024-03-08T00:56:44;100753.41;;;4.99;100.00
79645;BME280;69117;47.148;18.954;2024-03-08T00:59:47;100755.72;;;5.04;100.00
79645;BME280;69117;47.148;18.954;2024-03-08T01:02:49;100758.78;;;5.11;100.00
79645;BME280;69117;47.148;18.954;2024-03-08T01:05:51;100748.50;;;5.08;100.00
79645;BME280;69117;47.148;18.954;2024-03-08T01:08:53;100750.91;;;5.11;100.00
79645;BME280;69117;47.148;18.954;2024-03-08T01:11:55;100755.25;;;5.12;100.00
79645;BME280;69117;47.148;18.954;2024-03-08T01:14:57;100749.66;;;5.03;100.00
79645;BME280;69117;47.148;18.954;2024-03-08T01:17:59;100752.91;;;5.07;100.00
79645;BME280;69117;47.148;18.954;2024-03-08T01:21:02;100755.44;;;5.09;100.00
79645;BME280;69117;47.148;18.954;2024-03-08T01:24:04;100756.94;;;4.98;100.00
79645;BME280;69117;47.148;18.954;2024-03-08T01:27:06;100762.53;;;5.07;100.00
79645;BME280;69117;47.148;18.954;2024-03-08T01:30:10;100753.03;;;5.05;100.00
79645;BME280;69117;47.148;18.954;2024-03-08T01:33:12;100763.09;;;5.12;100.00
79645;BME280;69117;47.148;18.954;2024-03-08T01:36:14;100763.81;;;5.14;100.00
79645;BME280;69117;47.148;18.954;2024-03-08T01:39:17;100762.59;;;5.19;100.00
79645;BME280;69117;47.148;18.954;2024-03-08T01:42:18;100752.94;;;5.20;100.00
79645;BME280;69117;47.148;18.954;2024-03-08T01:45:20;100752.50;;;5.13;100.00
79645;BME280;69117;47.148;18.954;2024-03-08T01:48:22;100752.41;;;5.15;100.00
79645;BME280;69117;47.148;18.954;2024-03-08T01:51:25;100746.44;;;5.13;100.00
79645;BME280;69117;47.148;18.954;2024-03-08T01:54:28;100752.31;;;5.16;100.00
79645;BME280;69117;47.148;18.954;2024-03-08T01:57:31;100744.44;;;5.16;100.00
79645;BME280;69117;47.148;18.954;2024-03-08T02:00:35;100754.38;;;5.11;100.00
79645;BME280;69117;47.148;18.954;2024-03-08T02:03:38;100755.13;;;5.13;100.00
79645;BME280;69117;47.148;18.954;2024-03-08T02:06:39;100748.03;;;5.15;100.00
79645;BME280;69117;47.148;18.954;2024-03-08T02:09:41;100750.84;;;5.12;100.00
79645;BME280;69117;47.148;18.954;2024-03-08T02:12:44;100755.13;;;5.13;100.00
79645;BME280;69117;47.148;18.954;2024-03-08T02:15:56;100744.66;;;5.13;100.00
79645;BME280;69117;47.148;18.954;2024-03-08T02:18:57;100758.56;;;5.14;100.00
79645;BME280;69117;47.148;18.954;2024-03-08T02:22:00;100754.88;;;5.03;100.00
79645;BME280;69117;47.148;18.954;2024-03-08T02:25:02;100753.53;;;5.11;100.00
79645;BME280;69117;47.148;18.954;2024-03-08T02:28:04;100759.22;;;5.17;100.00
79645;BME280;69117;47.148;18.954;2024-03-08T02:31:06;100753.78;;;5.20;100.00
79645;BME280;69117;47.148;18.954;2024-03-08T02:34:09;100750.72;;;5.14;100.00
79645;BME280;69117;47.148;18.954;2024-03-08T02:37:11;100752.09;;;5.19;100.00
79645;BME280;69117;47.148;18.954;2024-03-08T02:40:13;100753.69;;;5.22;100.00
79645;BME280;69117;47.148;18.954;2024-03-08T02:43:16;100751.28;;;5.19;100.00
79645;BME280;69117;47.148;18.954;2024-03-08T02:46:19;100746.97;;;5.18;100.00
79645;BME280;69117;47.148;18.954;2024-03-08T02:49:22;100756.50;;;5.19;100.00
79645;BME280;69117;47.148;18.954;2024-03-08T02:52:24;100753.88;;;5.19;100.00
79645;BME280;69117;47.148;18.954;2024-03-08T02:55:26;100749.81;;;5.15;100.00
79645;BME280;69117;47.148;18.954;2024-03-08T02:58:27;100748.84;;;5.16;100.00
79645;BME280;69117;47.148;18.954;2024-03-08T03:01:29;100757.53;;;5.16;100.00
79645;BME280;69117;47.148;18.954;2024-03-08T03:04:31;100753.13;;;5.17;100.00
79645;BME280;69117;47.148;18.954;2024-03-08T03:07:33;100761.13;;;5.15;100.00
79645;BME280;69117;47.148;18.954;2024-03-08T03:10:35;100756.72;;;5.16;100.00
79645;BME280;69117;47.148;18.954;2024-03-08T03:13:37;100756.72;;;5.16;100.00
79645;BME280;69117;47.148;18.954;2024-03-08T03:16:39;100761.94;;;5.16;100.00
79645;BME280;69117;47.148;18.954;2024-03-08T03:19:41;100764.97;;;5.10;100.00
79645;BME280;69117;47.148;18.954;2024-03-08T03:22:44;100762.53;;;5.07;100.00
79645;BME280;69117;47.148;18.954;2024-03-08T03:25:48;100762.53;;;5.07;100.00
79645;BME280;69117;47.148;18.954;2024-03-08T03:28:50;100760.13;;;5.03;100.00
79645;BME280;69117;47.148;18.954;2024-03-08T03:31:51;100765.16;;;5.07;100.00
79645;BME280;69117;47.148;18.954;2024-03-08T03:34:53;100766.94;;;5.06;100.00
79645;BME280;69117;47.148;18.954;2024-03-08T03:37:55;100766.19;;;5.04;100.00
79645;BME280;69117;47.148;18.954;2024-03-08T03:41:12;100765.25;;;5.05;100.00
79645;BME280;69117;47.148;18.954;2024-03-08T03:44:16;100770.25;;;4.95;100.00
79645;BME280;69117;47.148;18.954;2024-03-08T03:47:17;100771.19;;;4.94;100.00
79645;BME280;69117;47.148;18.954;2024-03-08T03:50:20;100769.41;;;4.95;100.00
79645;BME280;69117;47.148;18.954;2024-03-08T03:53:21;100770.03;;;4.98;100.00
79645;BME280;69117;47.148;18.954;2024-03-08T03:56:26;100774.44;;;4.98;100.00
79645;BME280;69117;47.148;18.954;2024-03-08T03:59:29;100756.22;;;4.96;100.00
79645;BME280;69117;47.148;18.954;2024-03-08T04:02:30;100770.34;;;4.94;100.00
79645;BME280;69117;47.148;18.954;2024-03-08T04:05:32;100772.31;;;4.90;100.00
79645;BME280;69117;47.148;18.954;2024-03-08T04:08:34;100771.38;;;4.91;100.00
79645;BME280;69117;47.148;18.954;2024-03-08T04:11:35;100771.25;;;4.93;100.00
79645;BME280;69117;47.148;18.954;2024-03-08T04:14:42;100771.25;;;4.93;100.00
79645;BME280;69117;47.148;18.954;2024-03-08T04:17:44;100770.00;;;4.86;100.00
79645;BME280;69117;47.148;18.954;2024-03-08T04:20:48;100775.66;;;4.92;100.00
79645;BME280;69117;47.148;18.954;2024-03-08T04:23:49;100775.47;;;4.95;100.00
79645;BME280;69117;47.148;18.954;2024-03-08T04:26:51;100777.56;;;4.90;100.00
79645;BME280;69117;47.148;18.954;2024-03-08T04:29:53;100779.03;;;4.94;100.00
79645;BME280;69117;47.148;18.954;2024-03-08T04:32:55;100779.31;;;4.90;100.00
79645;BME280;69117;47.148;18.954;2024-03-08T04:35:57;100779.88;;;4.95;100.00
79645;BME280;69117;47.148;18.954;2024-03-08T04:38:59;100776.06;;;4.86;100.00
79645;BME280;69117;47.148;18.954;2024-03-08T04:42:02;100785.09;;;4.95;100.00
79645;BME280;69117;47.148;18.954;2024-03-08T04:45:08;100780.38;;;4.87;100.00
79645;BME280;69117;47.148;18.954;2024-03-08T04:48:10;100775.22;;;4.86;100.00
79645;BME280;69117;47.148;18.954;2024-03-08T04:51:13;100785.41;;;4.90;100.00
79645;BME280;69117;47.148;18.954;2024-03-08T04:54:14;100790.66;;;4.90;100.00
79645;BME280;69117;47.148;18.954;2024-03-08T04:57:16;100789.59;;;4.93;100.00
79645;BME280;69117;47.148;18.954;2024-03-08T05:00:20;100791.50;;;4.91;100.00
79645;BME280;69117;47.148;18.954;2024-03-08T05:03:22;100779.22;;;4.91;100.00
79645;BME280;69117;47.148;18.954;2024-03-08T05:06:28;100789.25;;;4.85;100.00
79645;BME280;69117;47.148;18.954;2024-03-08T05:09:31;100786.34;;;4.89;100.00
79645;BME280;69117;47.148;18.954;2024-03-08T05:12:33;100790.66;;;4.90;100.00
79645;BME280;69117;47.148;18.954;2024-03-08T05:15:35;100780.91;;;4.92;100.00
79645;BME280;69117;47.148;18.954;2024-03-08T05:18:37;100787.72;;;4.95;100.00
79645;BME280;69117;47.148;18.954;2024-03-08T05:21:39;100785.94;;;4.95;100.00
79645;BME280;69117;47.148;18.954;2024-03-08T05:24:41;100793.59;;;4.98;100.00
79645;BME280;69117;47.148;18.954;2024-03-08T05:27:43;100789.31;;;4.97;100.00
79645;BME280;69117;47.148;18.954;2024-03-08T05:30:45;100796.03;;;5.01;100.00
79645;BME280;69117;47.148;18.954;2024-03-08T05:33:47;100796.03;;;5.01;100.00
79645;BME280;69117;47.148;18.954;2024-03-08T05:36:49;100802.66;;;5.07;100.00
79645;BME280;69117;47.148;18.954;2024-03-08T05:39:52;100794.03;;;5.05;100.00
79645;BME280;69117;47.148;18.954;2024-03-08T05:42:55;100792.81;;;5.11;100.00
79645;BME280;69117;47.148;18.954;2024-03-08T05:45:57;100805.00;;;5.12;100.00
79645;BME280;69117;47.148;18.954;2024-03-08T05:48:58;100808.06;;;5.18;100.00
79645;BME280;69117;47.148;18.954;2024-03-08T05:52:00;100808.06;;;5.18;100.00
79645;BME280;69117;47.148;18.954;2024-03-08T05:55:02;100801.09;;;5.17;100.00
79645;BME280;69117;47.148;18.954;2024-03-08T05:58:04;100817.50;;;5.21;100.00
79645;BME280;69117;47.148;18.954;2024-03-08T06:01:06;100822.19;;;5.16;100.00
79645;BME280;69117;47.148;18.954;2024-03-08T06:04:09;100818.13;;;5.24;100.00
79645;BME280;69117;47.148;18.954;2024-03-08T06:07:13;100814.56;;;5.25;100.00
79645;BME280;69117;47.148;18.954;2024-03-08T06:10:15;100813.34;;;5.31;100.00
79645;BME280;69117;47.148;18.954;2024-03-08T06:13:19;100817.81;;;5.29;100.00
79645;BME280;69117;47.148;18.954;2024-03-08T06:16:20;100813.97;;;5.35;100.00
79645;BME280;69117;47.148;18.954;2024-03-08T06:19:22;100816.38;;;5.38;100.00
79645;BME280;69117;47.148;18.954;2024-03-08T06:22:24;100817.22;;;5.38;100.00
79645;BME280;69117;47.148;18.954;2024-03-08T06:25:25;100813.56;;;5.41;100.00
79645;BME280;69117;47.148;18.954;2024-03-08T06:28:27;100823.22;;;5.40;100.00
79645;BME280;69117;47.148;18.954;2024-03-08T06:31:29;100821.66;;;5.50;100.00
79645;BME280;69117;47.148;18.954;2024-03-08T06:34:32;100824.09;;;5.54;100.00
79645;BME280;69117;47.148;18.954;2024-03-08T06:37:36;100826.69;;;5.54;100.00
79645;BME280;69117;47.148;18.954;2024-03-08T06:40:37;100820.53;;;5.55;100.00
79645;BME280;69117;47.148;18.954;2024-03-08T06:43:39;100828.19;;;5.58;100.00
79645;BME280;69117;47.148;18.954;2024-03-08T06:46:41;100833.25;;;5.61;100.00
79645;BME280;69117;47.148;18.954;2024-03-08T06:49:43;100838.47;;;5.61;100.00
79645;BME280;69117;47.148;18.954;2024-03-08T06:52:47;100829.47;;;5.65;100.00
79645;BME280;69117;47.148;18.954;2024-03-08T06:55:54;100837.13;;;5.68;100.00
79645;BME280;69117;47.148;18.954;2024-03-08T06:58:56;100827.59;;;5.67;100.00
79645;BME280;69117;47.148;18.954;2024-03-08T07:01:58;100847.00;;;5.77;100.00
79645;BME280;69117;47.148;18.954;2024-03-08T07:05:01;100839.13;;;5.77;100.00
79645;BME280;69117;47.148;18.954;2024-03-08T07:08:03;100842.09;;;5.85;100.00
79645;BME280;69117;47.148;18.954;2024-03-08T07:11:05;100836.88;;;5.85;100.00
79645;BME280;69117;47.148;18.954;2024-03-08T07:14:07;100842.00;;;5.87;100.00
79645;BME280;69117;47.148;18.954;2024-03-08T07:17:08;100842.28;;;5.96;100.00
79645;BME280;69117;47.148;18.954;2024-03-08T07:20:11;100843.09;;;5.97;100.00
79645;BME280;69117;47.148;18.954;2024-03-08T07:23:15;100848.97;;;6.01;100.00
79645;BME280;69117;47.148;18.954;2024-03-08T07:26:36;100842.50;;;6.06;100.00
79645;BME280;69117;47.148;18.954;2024-03-08T07:29:39;100839.44;;;6.12;100.00
79645;BME280;69117;47.148;18.954;2024-03-08T07:32:41;100836.63;;;6.15;100.00
79645;BME280;69117;47.148;18.954;2024-03-08T07:35:45;100843.66;;;6.28;100.00
79645;BME280;69117;47.148;18.954;2024-03-08T07:38:48;100851.94;;;6.34;100.00
79645;BME280;69117;47.148;18.954;2024-03-08T07:41:50;100853.31;;;6.40;100.00
79645;BME280;69117;47.148;18.954;2024-03-08T07:44:54;100852.56;;;6.25;100.00
79645;BME280;69117;47.148;18.954;2024-03-08T07:47:56;100851.09;;;6.34;100.00
79645;BME280;69117;47.148;18.954;2024-03-08T07:50:58;100853.44;;;6.38;100.00
79645;BME280;69117;47.148;18.954;2024-03-08T07:54:00;100862.22;;;6.50;100.00
79645;BME280;69117;47.148;18.954;2024-03-08T07:57:01;100860.31;;;6.65;100.00
79645;BME280;69117;47.148;18.954;2024-03-08T08:00:05;100855.38;;;6.73;100.00
79645;BME280;69117;47.148;18.954;2024-03-08T08:03:10;100855.69;;;6.81;100.00
79645;BME280;69117;47.148;18.954;2024-03-08T08:06:12;100845.56;;;7.01;100.00
79645;BME280;69117;47.148;18.954;2024-03-08T08:09:17;100846.19;;;7.28;100.00
79645;BME280;69117;47.148;18.954;2024-03-08T08:12:29;100855.88;;;7.52;100.00
79645;BME280;69117;47.148;18.954;2024-03-08T08:15:31;100858.19;;;7.56;100.00
79645;BME280;69117;47.148;18.954;2024-03-08T08:18:34;100857.22;;;7.33;100.00
79645;BME280;69117;47.148;18.954;2024-03-08T08:21:36;100846.59;;;7.35;100.00
79645;BME280;69117;47.148;18.954;2024-03-08T08:24:38;100854.00;;;7.30;100.00
79645;BME280;69117;47.148;18.954;2024-03-08T08:27:40;100853.31;;;7.39;100.00
79645;BME280;69117;47.148;18.954;2024-03-08T08:30:41;100851.03;;;6.98;100.00
79645;BME280;69117;47.148;18.954;2024-03-08T08:33:43;100845.91;;;6.83;100.00
79645;BME280;69117;47.148;18.954;2024-03-08T08:36:48;100846.91;;;7.06;100.00
79645;BME280;69117;47.148;18.954;2024-03-08T08:39:50;100849.13;;;7.00;100.00
79645;BME280;69117;47.148;18.954;2024-03-08T08:42:52;100840.16;;;6.78;100.00
79645;BME280;69117;47.148;18.954;2024-03-08T08:45:54;100849.50;;;6.82;100.00
79645;BME280;69117;47.148;18.954;2024-03-08T08:48:56;100850.28;;;6.96;100.00
79645;BME280;69117;47.148;18.954;2024-03-08T08:51:58;100850.50;;;6.93;100.00
79645;BME280;69117;47.148;18.954;2024-03-08T08:55:09;100852.69;;;6.99;100.00
79645;BME280;69117;47.148;18.954;2024-03-08T08:58:16;100858.72;;;6.88;100.00
79645;BME280;69117;47.148;18.954;2024-03-08T09:01:17;100851.72;;;7.13;100.00
79645;BME280;69117;47.148;18.954;2024-03-08T09:04:20;100851.84;;;7.11;100.00
79645;BME280;69117;47.148;18.954;2024-03-08T09:07:23;100853.13;;;7.05;100.00
79645;BME280;69117;47.148;18.954;2024-03-08T09:10:25;100848.34;;;7.10;100.00
79645;BME280;69117;47.148;18.954;2024-03-08T09:13:31;100848.19;;;7.01;100.00
79645;BME280;69117;47.148;18.954;2024-03-08T09:16:35;100851.88;;;6.98;100.00
79645;BME280;69117;47.148;18.954;2024-03-08T09:19:38;100844.19;;;6.95;100.00
79645;BME280;69117;47.148;18.954;2024-03-08T09:22:44;100852.28;;;6.92;100.00
79645;BME280;69117;47.148;18.954;2024-03-08T09:25:47;100838.94;;;6.95;100.00
79645;BME280;69117;47.148;18.954;2024-03-08T09:28:49;100855.19;;;7.13;100.00
79645;BME280;69117;47.148;18.954;2024-03-08T09:31:51;100848.44;;;7.22;100.00
79645;BME280;69117;47.148;18.954;2024-03-08T09:34:53;100856.72;;;7.28;100.00
79645;BME280;69117;47.148;18.954;2024-03-08T09:37:55;100850.94;;;7.71;100.00
79645;BME280;69117;47.148;18.954;2024-03-08T09:40:57;100854.66;;;8.15;100.00
79645;BME280;69117;47.148;18.954;2024-03-08T09:43:59;100858.81;;;8.42;100.00
79645;BME280;69117;47.148;18.954;2024-03-08T09:47:02;100862.28;;;8.42;100.00
79645;BME280;69117;47.148;18.954;2024-03-08T09:50:05;100865.66;;;8.44;100.00
79645;BME280;69117;47.148;18.954;2024-03-08T09:53:07;100863.09;;;7.61;100.00
79645;BME280;69117;47.148;18.954;2024-03-08T09:56:13;100864.38;;;7.55;100.00
79645;BME280;69117;47.148;18.954;2024-03-08T09:59:14;100854.88;;;7.42;100.00
79645;BME280;69117;47.148;18.954;2024-03-08T10:02:34;100864.75;;;7.38;100.00
79645;BME280;69117;47.148;18.954;2024-03-08T10:05:36;100864.00;;;7.73;100.00
79645;BME280;69117;47.148;18.954;2024-03-08T10:08:39;100860.84;;;7.20;100.00
79645;BME280;69117;47.148;18.954;2024-03-08T10:11:42;100866.63;;;7.49;100.00
79645;BME280;69117;47.148;18.954;2024-03-08T10:14:45;100861.69;;;7.68;100.00
79645;BME280;69117;47.148;18.954;2024-03-08T10:17:47;100869.84;;;7.76;100.00
79645;BME280;69117;47.148;18.954;2024-03-08T10:21:07;100862.75;;;7.90;100.00
79645;BME280;69117;47.148;18.954;2024-03-08T10:24:11;100858.06;;;7.58;100.00
79645;BME280;69117;47.148;18.954;2024-03-08T10:27:17;100857.88;;;7.96;100.00
79645;BME280;69117;47.148;18.954;2024-03-08T10:30:18;100862.84;;;8.35;100.00
79645;BME280;69117;47.148;18.954;2024-03-08T10:33:21;100868.66;;;7.80;100.00
79645;BME280;69117;47.148;18.954;2024-03-08T10:36:25;100862.72;;;8.36;100.00
79645;BME280;69117;47.148;18.954;2024-03-08T10:39:36;100863.03;;;8.44;100.00
79645;BME280;69117;47.148;18.954;2024-03-08T10:42:41;100858.28;;;8.37;100.00
79645;BME280;69117;47.148;18.954;2024-03-08T10:45:46;100860.16;;;8.47;100.00
79645;BME280;69117;47.148;18.954;2024-03-08T10:48:52;100854.63;;;8.04;100.00
79645;BME280;69117;47.148;18.954;2024-03-08T10:51:54;100845.13;;;8.14;100.00
79645;BME280;69117;47.148;18.954;2024-03-08T10:54:57;100855.22;;;7.96;100.00
79645;BME280;69117;47.148;18.954;2024-03-08T10:58:00;100860.97;;;8.01;100.00
79645;BME280;69117;47.148;18.954;2024-03-08T11:01:02;100851.00;;;7.83;100.00
79645;BME280;69117;47.148;18.954;2024-03-08T11:04:05;100848.97;;;7.51;100.00
79645;BME280;69117;47.148;18.954;2024-03-08T11:07:06;100848.13;;;7.14;100.00
79645;BME280;69117;47.148;18.954;2024-03-08T11:10:19;100848.13;;;7.26;100.00
79645;BME280;69117;47.148;18.954;2024-03-08T11:13:37;100858.34;;;7.42;100.00
79645;BME280;69117;47.148;18.954;2024-03-08T11:16:47;100843.06;;;7.47;100.00
79645;BME280;69117;47.148;18.954;2024-03-08T11:19:49;100846.28;;;7.40;100.00
79645;BME280;69117;47.148;18.954;2024-03-08T11:23:00;100846.81;;;7.56;100.00
79645;BME280;69117;47.148;18.954;2024-03-08T11:26:36;100844.16;;;7.69;100.00
79645;BME280;69117;47.148;18.954;2024-03-08T11:29:38;100842.31;;;8.04;100.00
79645;BME280;69117;47.148;18.954;2024-03-08T11:32:45;100840.63;;;8.39;100.00
79645;BME280;69117;47.148;18.954;2024-03-08T11:35:48;100837.75;;;8.53;100.00
79645;BME280;69117;47.148;18.954;2024-03-08T11:38:51;100835.34;;;8.50;100.00
79645;BME280;69117;47.148;18.954;2024-03-08T11:41:54;100835.69;;;8.23;100.00
79645;BME280;69117;47.148;18.954;2024-03-08T11:44:56;100831.88;;;7.92;100.00
79645;BME280;69117;47.148;18.954;2024-03-08T11:47:59;100817.81;;;7.93;100.00
79645;BME280;69117;47.148;18.954;2024-03-08T11:51:01;100824.06;;;8.14;100.00
79645;BME280;69117;47.148;18.954;2024-03-08T11:54:04;100823.81;;;8.17;100.00
79645;BME280;69117;47.148;18.954;2024-03-08T11:57:07;100821.19;;;8.17;100.00
79645;BME280;69117;47.148;18.954;2024-03-08T12:00:15;100819.50;;;8.16;100.00
79645;BME280;69117;47.148;18.954;2024-03-08T12:03:24;100818.16;;;7.64;100.00
79645;BME280;69117;47.148;18.954;2024-03-08T12:06:27;100816.56;;;7.86;100.00
79645;BME280;69117;47.148;18.954;2024-03-08T12:09:28;100814.16;;;7.83;100.00
79645;BME280;69117;47.148;18.954;2024-03-08T12:12:32;100815.84;;;7.84;100.00
79645;BME280;69117;47.148;18.954;2024-03-08T12:15:34;100807.94;;;7.84;100.00
79645;BME280;69117;47.148;18.954;2024-03-08T12:18:37;100815.81;;;7.72;100.00
79645;BME280;69117;47.148;18.954;2024-03-08T12:21:42;100810.97;;;7.55;100.00
79645;BME280;69117;47.148;18.954;2024-03-08T12:25:06;100808.56;;;7.28;100.00
79645;BME280;69117;47.148;18.954;2024-03-08T12:28:12;100807.34;;;7.21;100.00
79645;BME280;69117;47.148;18.954;2024-03-08T12:31:18;100811.56;;;7.23;100.00
79645;BME280;69117;47.148;18.954;2024-03-08T12:34:22;100803.25;;;7.17;100.00
79645;BME280;69117;47.148;18.954;2024-03-08T12:37:23;100810.44;;;7.15;100.00
79645;BME280;69117;47.148;18.954;2024-03-08T12:40:29;100806.41;;;7.22;100.00
79645;BME280;69117;47.148;18.954;2024-03-08T12:43:33;100808.94;;;7.23;100.00
79645;BME280;69117;47.148;18.954;2024-03-08T12:46:35;100796.88;;;7.32;100.00
79645;BME280;69117;47.148;18.954;2024-03-08T12:49:37;100799.34;;;7.46;100.00
79645;BME280;69117;47.148;18.954;2024-03-08T12:52:39;100804.94;;;7.18;100.00
79645;BME280;69117;47.148;18.954;2024-03-08T12:55:41;100798.34;;;7.36;100.00
79645;BME280;69117;47.148;18.954;2024-03-08T12:58:43;100792.75;;;7.41;100.00
79645;BME280;69117;47.148;18.954;2024-03-08T13:01:45;100800.41;;;7.20;100.00
79645;BME280;69117;47.148;18.954;2024-03-08T13:04:46;100786.72;;;7.03;100.00
79645;BME280;69117;47.148;18.954;2024-03-08T13:07:57;100794.06;;;7.11;100.00
79645;BME280;69117;47.148;18.954;2024-03-08T13:11:00;100790.31;;;7.02;100.00
79645;BME280;69117;47.148;18.954;2024-03-08T13:14:03;100790.53;;;6.99;100.00
79645;BME280;69117;47.148;18.954;2024-03-08T13:17:07;100785.88;;;7.03;100.00
79645;BME280;69117;47.148;18.954;2024-03-08T13:20:12;100778.00;;;7.03;100.00
79645;BME280;69117;47.148;18.954;2024-03-08T13:23:31;100782.66;;;6.99;100.00
79645;BME280;69117;47.148;18.954;2024-03-08T13:26:33;100780.34;;;6.95;100.00
79645;BME280;69117;47.148;18.954;2024-03-08T13:29:35;100786.16;;;6.87;100.00
79645;BME280;69117;47.148;18.954;2024-03-08T13:32:37;100777.31;;;6.88;100.00
79645;BME280;69117;47.148;18.954;2024-03-08T13:35:41;100776.69;;;6.84;100.00
79645;BME280;69117;47.148;18.954;2024-03-08T13:38:43;100774.13;;;6.96;100.00
79645;BME280;69117;47.148;18.954;2024-03-08T13:41:46;100781.06;;;6.97;100.00
79645;BME280;69117;47.148;18.954;2024-03-08T13:44:48;100782.19;;;7.05;100.00
79645;BME280;69117;47.148;18.954;2024-03-08T13:47:53;100781.06;;;6.97;100.00
79645;BME280;69117;47.148;18.954;2024-03-08T13:50:56;100769.38;;;7.01;100.00
79645;BME280;69117;47.148;18.954;2024-03-08T13:53:58;100776.66;;;6.97;100.00
79645;BME280;69117;47.148;18.954;2024-03-08T13:57:02;100770.44;;;6.98;100.00
79645;BME280;69117;47.148;18.954;2024-03-08T14:00:06;100773.19;;;6.97;100.00
79645;BME280;69117;47.148;18.954;2024-03-08T14:03:08;100773.06;;;6.98;100.00
79645;BME280;69117;47.148;18.954;2024-03-08T14:06:11;100764.56;;;6.95;100.00
79645;BME280;69117;47.148;18.954;2024-03-08T14:09:24;100776.47;;;6.87;100.00
79645;BME280;69117;47.148;18.954;2024-03-08T14:12:26;100778.31;;;6.98;100.00
79645;BME280;69117;47.148;18.954;2024-03-08T14:15:31;100768.09;;;6.82;100.00
79645;BME280;69117;47.148;18.954;2024-03-08T14:18:33;100775.22;;;6.80;100.00
79645;BME280;69117;47.148;18.954;2024-03-08T14:21:34;100764.09;;;6.77;100.00
79645;BME280;69117;47.148;18.954;2024-03-08T14:24:36;100773.38;;;6.70;100.00
79645;BME280;69117;47.148;18.954;2024-03-08T14:27:38;100768.97;;;6.70;100.00
79645;BME280;69117;47.148;18.954;2024-03-08T14:30:40;100767.06;;;6.72;100.00
79645;BME280;69117;47.148;18.954;2024-03-08T14:33:44;100761.66;;;6.86;100.00
79645;BME280;69117;47.148;18.954;2024-03-08T14:36:50;100762.38;;;6.88;100.00
79645;BME280;69117;47.148;18.954;2024-03-08T14:39:51;100766.28;;;6.83;100.00
79645;BME280;69117;47.148;18.954;2024-03-08T14:42:53;100762.63;;;6.85;100.00
79645;BME280;69117;47.148;18.954;2024-03-08T14:45:55;100761.47;;;6.77;100.00
79645;BME280;69117;47.148;18.954;2024-03-08T14:48:57;100755.44;;;6.63;100.00
79645;BME280;69117;47.148;18.954;2024-03-08T14:51:59;100763.63;;;6.59;100.00
79645;BME280;69117;47.148;18.954;2024-03-08T14:55:00;100757.00;;;6.66;100.00
79645;BME280;69117;47.148;18.954;2024-03-08T14:58:04;100748.53;;;6.50;100.00
79645;BME280;69117;47.148;18.954;2024-03-08T15:01:06;100750.09;;;6.52;100.00
79645;BME280;69117;47.148;18.954;2024-03-08T15:04:12;100745.59;;;6.54;100.00
79645;BME280;69117;47.148;18.954;2024-03-08T15:07:14;100748.56;;;6.37;100.00
79645;BME280;69117;47.148;18.954;2024-03-08T15:10:15;100750.81;;;6.17;100.00
79645;BME280;69117;47.148;18.954;2024-03-08T15:13:18;100753.72;;;6.26;100.00
79645;BME280;69117;47.148;18.954;2024-03-08T15:16:24;100739.56;;;6.15;100.00
79645;BME280;69117;47.148;18.954;2024-03-08T15:19:27;100756.13;;;6.29;100.00
79645;BME280;69117;47.148;18.954;2024-03-08T15:22:29;100750.44;;;6.35;100.00
79645;BME280;69117;47.148;18.954;2024-03-08T15:25:31;100747.09;;;6.46;100.00
79645;BME280;69117;47.148;18.954;2024-03-08T15:28:36;100756.97;;;6.42;100.00
79645;BME280;69117;47.148;18.954;2024-03-08T15:31:39;100750.88;;;6.29;100.00
79645;BME280;69117;47.148;18.954;2024-03-08T15:34:44;100754.56;;;6.39;100.00
79645;BME280;69117;47.148;18.954;2024-03-08T15:37:47;100743.84;;;6.29;100.00
79645;BME280;69117;47.148;18.954;2024-03-08T15:40:49;100748.69;;;6.10;100.00
79645;BME280;69117;47.148;18.954;2024-03-08T15:43:53;100753.72;;;6.26;100.00
79645;BME280;69117;47.148;18.954;2024-03-08T15:46:56;100758.22;;;6.11;100.00